sensor_id;sensor_type;location;lat;lon;timestamp;P1;durP1;ratioP1;P2;durP2;ratioP2
43676;SDS011;29275;48.800;18.102;2023-11-18T00:02:29;6.47;;;4.07;;
43676;SDS011;29275;48.800;18.102;2023-11-18T00:05:32;5.35;;;3.72;;
43676;SDS011;29275;48.800;18.102;2023-11-18T00:08:35;5.43;;;3.65;;
43676;SDS011;29275;48.800;18.102;2023-11-18T00:11:38;7.10;;;3.72;;
43676;SDS011;29275;48.800;18.102;2023-11-18T00:14:42;4.90;;;3.67;;
43676;SDS011;29275;48.800;18.102;2023-11-18T00:17:45;5.32;;;3.58;;
43676;SDS011;29275;48.800;18.102;2023-11-18T00:20:48;6.28;;;3.60;;
43676;SDS011;29275;48.800;18.102;2023-11-18T00:23:53;5.90;;;3.72;;
43676;SDS011;29275;48.800;18.102;2023-11-18T00:26:58;5.40;;;3.80;;
43676;SDS011;29275;48.800;18.102;2023-11-18T00:30:01;5.82;;;3.50;;
43676;SDS011;29275;48.800;18.102;2023-11-18T00:33:07;4.75;;;3.28;;
43676;SDS011;29275;48.800;18.102;2023-11-18T00:36:11;5.10;;;3.75;;
43676;SDS011;29275;48.800;18.102;2023-11-18T00:39:14;10.02;;;3.78;;
43676;SDS011;29275;48.800;18.102;2023-11-18T00:42:16;4.68;;;3.38;;
43676;SDS011;29275;48.800;18.102;2023-11-18T00:45:19;6.15;;;3.72;;
43676;SDS011;29275;48.800;18.102;2023-11-18T00:48:23;4.88;;;3.40;;
43676;SDS011;29275;48.800;18.102;2023-11-18T00:51:26;5.60;;;3.42;;
43676;SDS011;29275;48.800;18.102;2023-11-18T00:54:29;5.40;;;3.67;;
43676;SDS011;29275;48.800;18.102;2023-11-18T00:57:33;5.72;;;3.42;;
43676;SDS011;29275;48.800;18.102;2023-11-18T01:00:36;4.45;;;3.35;;
43676;SDS011;29275;48.800;18.102;2023-11-18T01:03:40;5.90;;;3.83;;
43676;SDS011;29275;48.800;18.102;2023-11-18T01:06:42;5.35;;;3.88;;
43676;SDS011;29275;48.800;18.102;2023-11-18T01:09:45;5.43;;;3.85;;
43676;SDS011;29275;48.800;18.102;2023-11-18T01:12:48;5.93;;;3.80;;
43676;SDS011;29275;48.800;18.102;2023-11-18T01:15:52;6.43;;;3.83;;
43676;SDS011;29275;48.800;18.102;2023-11-18T01:18:55;5.53;;;3.90;;
43676;SDS011;29275;48.800;18.102;2023-11-18T01:21:58;6.55;;;3.97;;
43676;SDS011;29275;48.800;18.102;2023-11-18T01:25:01;7.97;;;4.00;;
43676;SDS011;29275;48.800;18.102;2023-11-18T01:28:04;5.72;;;3.92;;
43676;SDS011;29275;48.800;18.102;2023-11-18T01:31:07;5.47;;;3.83;;
43676;SDS011;29275;48.800;18.102;2023-11-18T01:34:13;5.68;;;3.95;;
43676;SDS011;29275;48.800;18.102;2023-11-18T01:37:16;5.40;;;3.65;;
43676;SDS011;29275;48.800;18.102;2023-11-18T01:40:20;7.88;;;3.97;;
43676;SDS011;29275;48.800;18.102;2023-11-18T01:43:23;5.55;;;3.92;;
43676;SDS011;29275;48.800;18.102;2023-11-18T01:46:26;5.28;;;3.95;;
43676;SDS011;29275;48.800;18.102;2023-11-18T01:49:32;6.15;;;4.00;;
43676;SDS011;29275;48.800;18.102;2023-11-18T01:52:39;5.80;;;4.05;;
43676;SDS011;29275;48.800;18.102;2023-11-18T01:55:47;7.78;;;4.30;;
43676;SDS011;29275;48.800;18.102;2023-11-18T01:58:52;5.75;;;4.35;;
43676;SDS011;29275;48.800;18.102;2023-11-18T02:01:55;7.63;;;4.47;;
43676;SDS011;29275;48.800;18.102;2023-11-18T02:05:02;5.50;;;4.07;;
43676;SDS011;29275;48.800;18.102;2023-11-18T02:08:05;5.45;;;3.78;;
43676;SDS011;29275;48.800;18.102;2023-11-18T02:14:44;6.35;;;4.45;;
43676;SDS011;29275;48.800;18.102;2023-11-18T02:17:47;6.30;;;4.10;;
43676;SDS011;29275;48.800;18.102;2023-11-18T02:20:52;6.22;;;4.30;;
43676;SDS011;29275;48.800;18.102;2023-11-18T02:23:56;5.03;;;3.70;;
43676;SDS011;29275;48.800;18.102;2023-11-18T02:27:00;6.45;;;4.60;;
43676;SDS011;29275;48.800;18.102;2023-11-18T02:30:04;6.28;;;4.32;;
43676;SDS011;29275;48.800;18.102;2023-11-18T02:33:27;8.60;;;4.80;;
43676;SDS011;29275;48.800;18.102;2023-11-18T02:36:43;6.95;;;4.47;;
43676;SDS011;29275;48.800;18.102;2023-11-18T02:39:49;6.15;;;4.60;;
43676;SDS011;29275;48.800;18.102;2023-11-18T02:42:56;6.53;;;4.50;;
43676;SDS011;29275;48.800;18.102;2023-11-18T02:46:01;5.78;;;3.97;;
43676;SDS011;29275;48.800;18.102;2023-11-18T02:49:04;5.95;;;4.38;;
43676;SDS011;29275;48.800;18.102;2023-11-18T02:52:07;6.15;;;4.18;;
43676;SDS011;29275;48.800;18.102;2023-11-18T02:55:12;5.25;;;3.80;;
43676;SDS011;29275;48.800;18.102;2023-11-18T02:58:15;5.22;;;3.67;;
43676;SDS011;29275;48.800;18.102;2023-11-18T03:01:19;6.90;;;4.00;;
43676;SDS011;29275;48.800;18.102;2023-11-18T03:04:22;5.28;;;4.20;;
43676;SDS011;29275;48.800;18.102;2023-11-18T03:07:26;4.88;;;3.85;;
43676;SDS011;29275;48.800;18.102;2023-11-18T03:10:32;5.82;;;4.10;;
43676;SDS011;29275;48.800;18.102;2023-11-18T03:13:37;5.25;;;3.75;;
43676;SDS011;29275;48.800;18.102;2023-11-18T03:16:40;5.43;;;3.40;;
43676;SDS011;29275;48.800;18.102;2023-11-18T03:19:43;5.25;;;3.97;;
43676;SDS011;29275;48.800;18.102;2023-11-18T03:22:46;5.07;;;3.60;;
43676;SDS011;29275;48.800;18.102;2023-11-18T03:25:50;4.80;;;3.50;;
43676;SDS011;29275;48.800;18.102;2023-11-18T03:28:54;5.13;;;3.65;;
43676;SDS011;29275;48.800;18.102;2023-11-18T03:31:56;5.40;;;3.42;;
43676;SDS011;29275;48.800;18.102;2023-11-18T03:34:59;6.93;;;3.95;;
43676;SDS011;29275;48.800;18.102;2023-11-18T03:38:02;4.40;;;3.40;;
43676;SDS011;29275;48.800;18.102;2023-11-18T03:41:06;4.10;;;2.97;;
43676;SDS011;29275;48.800;18.102;2023-11-18T03:44:14;4.10;;;3.20;;
43676;SDS011;29275;48.800;18.102;2023-11-18T03:47:17;5.90;;;2.90;;
43676;SDS011;29275;48.800;18.102;2023-11-18T03:50:20;4.03;;;2.40;;
43676;SDS011;29275;48.800;18.102;2023-11-18T03:53:23;5.68;;;3.30;;
43676;SDS011;29275;48.800;18.102;2023-11-18T03:56:26;4.15;;;3.10;;
43676;SDS011;29275;48.800;18.102;2023-11-18T03:59:29;3.85;;;2.88;;
43676;SDS011;29275;48.800;18.102;2023-11-18T04:02:32;5.00;;;2.58;;
43676;SDS011;29275;48.800;18.102;2023-11-18T04:05:38;3.60;;;2.43;;
43676;SDS011;29275;48.800;18.102;2023-11-18T04:08:45;3.35;;;2.50;;
43676;SDS011;29275;48.800;18.102;2023-11-18T04:11:48;4.18;;;2.47;;
43676;SDS011;29275;48.800;18.102;2023-11-18T04:14:51;4.07;;;2.03;;
43676;SDS011;29275;48.800;18.102;2023-11-18T04:17:54;3.03;;;2.50;;
43676;SDS011;29275;48.800;18.102;2023-11-18T04:20:57;3.65;;;2.40;;
43676;SDS011;29275;48.800;18.102;2023-11-18T04:24:00;4.53;;;2.50;;
43676;SDS011;29275;48.800;18.102;2023-11-18T04:27:03;6.00;;;3.60;;
43676;SDS011;29275;48.800;18.102;2023-11-18T04:30:06;3.30;;;2.20;;
43676;SDS011;29275;48.800;18.102;2023-11-18T04:33:11;2.38;;;1.60;;
43676;SDS011;29275;48.800;18.102;2023-11-18T04:36:16;2.90;;;1.98;;
43676;SDS011;29275;48.800;18.102;2023-11-18T04:39:21;3.00;;;1.88;;
43676;SDS011;29275;48.800;18.102;2023-11-18T04:42:25;2.97;;;1.95;;
43676;SDS011;29275;48.800;18.102;2023-11-18T04:45:27;3.50;;;1.95;;
43676;SDS011;29275;48.800;18.102;2023-11-18T04:48:30;2.42;;;1.80;;
43676;SDS011;29275;48.800;18.102;2023-11-18T04:51:33;3.47;;;1.80;;
43676;SDS011;29275;48.800;18.102;2023-11-18T04:54:36;2.53;;;1.77;;
43676;SDS011;29275;48.800;18.102;2023-11-18T04:57:39;4.05;;;2.00;;
43676;SDS011;29275;48.800;18.102;2023-11-18T05:00:42;2.20;;;1.73;;
43676;SDS011;29275;48.800;18.102;2023-11-18T05:03:46;3.92;;;1.75;;
43676;SDS011;29275;48.800;18.102;2023-11-18T05:06:49;2.85;;;1.88;;
43676;SDS011;29275;48.800;18.102;2023-11-18T05:09:53;3.03;;;2.10;;
43676;SDS011;29275;48.800;18.102;2023-11-18T05:12:57;4.25;;;1.50;;
43676;SDS011;29275;48.800;18.102;2023-11-18T05:15:59;4.00;;;2.50;;
43676;SDS011;29275;48.800;18.102;2023-11-18T05:19:02;3.05;;;1.70;;
43676;SDS011;29275;48.800;18.102;2023-11-18T05:22:05;3.03;;;1.70;;
43676;SDS011;29275;48.800;18.102;2023-11-18T05:25:08;2.15;;;1.40;;
43676;SDS011;29275;48.800;18.102;2023-11-18T05:28:12;3.28;;;1.95;;
43676;SDS011;29275;48.800;18.102;2023-11-18T05:31:16;2.47;;;1.65;;
43676;SDS011;29275;48.800;18.102;2023-11-18T05:34:19;3.05;;;1.70;;
43676;SDS011;29275;48.800;18.102;2023-11-18T05:37:23;1.70;;;1.40;;
43676;SDS011;29275;48.800;18.102;2023-11-18T05:40:26;3.80;;;1.70;;
43676;SDS011;29275;48.800;18.102;2023-11-18T05:43:32;4.43;;;1.50;;
43676;SDS011;29275;48.800;18.102;2023-11-18T05:46:54;2.63;;;1.90;;
43676;SDS011;29275;48.800;18.102;2023-11-18T05:49:56;3.25;;;1.80;;
43676;SDS011;29275;48.800;18.102;2023-11-18T05:52:59;2.58;;;1.83;;
43676;SDS011;29275;48.800;18.102;2023-11-18T05:56:03;3.63;;;1.85;;
43676;SDS011;29275;48.800;18.102;2023-11-18T05:59:07;2.70;;;2.00;;
43676;SDS011;29275;48.800;18.102;2023-11-18T06:02:10;3.60;;;1.98;;
43676;SDS011;29275;48.800;18.102;2023-11-18T06:05:20;2.63;;;1.58;;
43676;SDS011;29275;48.800;18.102;2023-11-18T06:08:23;2.13;;;1.70;;
43676;SDS011;29275;48.800;18.102;2023-11-18T06:11:26;2.55;;;1.95;;
43676;SDS011;29275;48.800;18.102;2023-11-18T06:14:31;2.65;;;1.70;;
43676;SDS011;29275;48.800;18.102;2023-11-18T06:17:34;3.20;;;1.70;;
43676;SDS011;29275;48.800;18.102;2023-11-18T06:20:37;2.67;;;1.83;;
43676;SDS011;29275;48.800;18.102;2023-11-18T06:23:41;1.92;;;1.45;;
43676;SDS011;29275;48.800;18.102;2023-11-18T06:26:46;3.80;;;2.85;;
43676;SDS011;29275;48.800;18.102;2023-11-18T06:29:51;3.13;;;2.20;;
43676;SDS011;29275;48.800;18.102;2023-11-18T06:32:57;4.78;;;3.80;;
43676;SDS011;29275;48.800;18.102;2023-11-18T06:36:00;2.95;;;2.00;;
43676;SDS011;29275;48.800;18.102;2023-11-18T06:39:03;2.45;;;1.40;;
43676;SDS011;29275;48.800;18.102;2023-11-18T06:42:09;2.10;;;1.10;;
43676;SDS011;29275;48.800;18.102;2023-11-18T06:45:14;2.45;;;1.20;;
43676;SDS011;29275;48.800;18.102;2023-11-18T06:48:17;2.05;;;1.33;;
43676;SDS011;29275;48.800;18.102;2023-11-18T06:51:23;2.45;;;1.48;;
43676;SDS011;29275;48.800;18.102;2023-11-18T06:54:27;1.85;;;1.30;;
43676;SDS011;29275;48.800;18.102;2023-11-18T06:57:30;2.42;;;1.08;;
43676;SDS011;29275;48.800;18.102;2023-11-18T07:00:35;1.88;;;1.35;;
43676;SDS011;29275;48.800;18.102;2023-11-18T07:03:39;2.10;;;1.40;;
43676;SDS011;29275;48.800;18.102;2023-11-18T07:06:43;2.25;;;1.45;;
43676;SDS011;29275;48.800;18.102;2023-11-18T07:09:47;2.33;;;1.40;;
43676;SDS011;29275;48.800;18.102;2023-11-18T07:12:53;3.20;;;1.70;;
43676;SDS011;29275;48.800;18.102;2023-11-18T07:15:56;2.90;;;1.40;;
43676;SDS011;29275;48.800;18.102;2023-11-18T07:19:00;2.10;;;1.20;;
43676;SDS011;29275;48.800;18.102;2023-11-18T07:22:03;1.80;;;1.15;;
43676;SDS011;29275;48.800;18.102;2023-11-18T07:25:09;4.63;;;1.50;;
43676;SDS011;29275;48.800;18.102;2023-11-18T07:28:12;3.63;;;2.03;;
43676;SDS011;29275;48.800;18.102;2023-11-18T07:34:22;2.60;;;1.45;;
43676;SDS011;29275;48.800;18.102;2023-11-18T07:37:26;3.50;;;1.88;;
43676;SDS011;29275;48.800;18.102;2023-11-18T07:40:30;6.47;;;2.67;;
43676;SDS011;29275;48.800;18.102;2023-11-18T07:43:32;2.90;;;1.70;;
43676;SDS011;29275;48.800;18.102;2023-11-18T07:46:36;3.17;;;1.58;;
43676;SDS011;29275;48.800;18.102;2023-11-18T07:49:40;2.05;;;1.50;;
43676;SDS011;29275;48.800;18.102;2023-11-18T07:52:43;3.00;;;2.03;;
43676;SDS011;29275;48.800;18.102;2023-11-18T07:55:47;1.90;;;1.30;;
43676;SDS011;29275;48.800;18.102;2023-11-18T07:58:52;2.33;;;1.60;;
43676;SDS011;29275;48.800;18.102;2023-11-18T08:02:00;3.22;;;2.20;;
43676;SDS011;29275;48.800;18.102;2023-11-18T08:05:08;4.68;;;3.95;;
43676;SDS011;29275;48.800;18.102;2023-11-18T08:08:16;4.03;;;2.08;;
43676;SDS011;29275;48.800;18.102;2023-11-18T08:11:19;3.13;;;2.10;;
43676;SDS011;29275;48.800;18.102;2023-11-18T08:14:22;4.55;;;1.90;;
43676;SDS011;29275;48.800;18.102;2023-11-18T08:17:25;2.25;;;1.70;;
43676;SDS011;29275;48.800;18.102;2023-11-18T08:20:29;2.70;;;1.63;;
43676;SDS011;29275;48.800;18.102;2023-11-18T08:23:33;2.95;;;1.50;;
43676;SDS011;29275;48.800;18.102;2023-11-18T08:26:36;3.42;;;2.70;;
43676;SDS011;29275;48.800;18.102;2023-11-18T08:29:39;3.65;;;2.33;;
43676;SDS011;29275;48.800;18.102;2023-11-18T08:32:42;3.15;;;1.95;;
43676;SDS011;29275;48.800;18.102;2023-11-18T08:35:48;3.35;;;2.08;;
43676;SDS011;29275;48.800;18.102;2023-11-18T08:38:51;4.40;;;2.35;;
43676;SDS011;29275;48.800;18.102;2023-11-18T08:41:54;3.90;;;2.13;;
43676;SDS011;29275;48.800;18.102;2023-11-18T08:44:57;3.35;;;2.15;;
43676;SDS011;29275;48.800;18.102;2023-11-18T08:48:05;3.92;;;2.70;;
43676;SDS011;29275;48.800;18.102;2023-11-18T08:51:10;5.07;;;3.17;;
43676;SDS011;29275;48.800;18.102;2023-11-18T08:54:15;5.30;;;3.75;;
43676;SDS011;29275;48.800;18.102;2023-11-18T08:57:25;2.85;;;1.88;;
43676;SDS011;29275;48.800;18.102;2023-11-18T09:00:28;4.35;;;2.45;;
43676;SDS011;29275;48.800;18.102;2023-11-18T09:03:48;2.78;;;2.15;;
43676;SDS011;29275;48.800;18.102;2023-11-18T09:06:55;4.60;;;3.63;;
43676;SDS011;29275;48.800;18.102;2023-11-18T09:10:02;7.07;;;3.47;;
43676;SDS011;29275;48.800;18.102;2023-11-18T09:13:05;7.45;;;4.75;;
43676;SDS011;29275;48.800;18.102;2023-11-18T09:16:08;3.40;;;2.60;;
43676;SDS011;29275;48.800;18.102;2023-11-18T09:19:12;2.35;;;1.67;;
43676;SDS011;29275;48.800;18.102;2023-11-18T09:22:14;3.30;;;1.70;;
43676;SDS011;29275;48.800;18.102;2023-11-18T09:25:19;2.85;;;2.00;;
43676;SDS011;29275;48.800;18.102;2023-11-18T09:28:24;4.07;;;2.42;;
43676;SDS011;29275;48.800;18.102;2023-11-18T09:31:32;2.92;;;1.80;;
43676;SDS011;29275;48.800;18.102;2023-11-18T09:34:36;2.90;;;1.77;;
43676;SDS011;29275;48.800;18.102;2023-11-18T09:37:41;6.07;;;2.53;;
43676;SDS011;29275;48.800;18.102;2023-11-18T09:40:49;3.22;;;2.00;;
43676;SDS011;29275;48.800;18.102;2023-11-18T09:43:57;5.32;;;1.67;;
43676;SDS011;29275;48.800;18.102;2023-11-18T09:47:07;2.75;;;1.70;;
43676;SDS011;29275;48.800;18.102;2023-11-18T09:50:14;2.53;;;1.75;;
43676;SDS011;29275;48.800;18.102;2023-11-18T09:53:25;6.85;;;3.75;;
43676;SDS011;29275;48.800;18.102;2023-11-18T10:00:01;3.83;;;2.50;;
43676;SDS011;29275;48.800;18.102;2023-11-18T10:03:24;2.50;;;1.65;;
43676;SDS011;29275;48.800;18.102;2023-11-18T10:06:27;3.47;;;2.33;;
43676;SDS011;29275;48.800;18.102;2023-11-18T10:09:43;3.15;;;1.90;;
43676;SDS011;29275;48.800;18.102;2023-11-18T10:12:50;2.25;;;1.65;;
43676;SDS011;29275;48.800;18.102;2023-11-18T10:16:01;4.15;;;2.40;;
43676;SDS011;29275;48.800;18.102;2023-11-18T10:19:07;2.97;;;2.00;;
43676;SDS011;29275;48.800;18.102;2023-11-18T10:22:22;4.18;;;2.45;;
43676;SDS011;29275;48.800;18.102;2023-11-18T10:25:29;13.73;;;5.20;;
43676;SDS011;29275;48.800;18.102;2023-11-18T10:28:35;5.60;;;2.92;;
43676;SDS011;29275;48.800;18.102;2023-11-18T10:31:42;2.38;;;1.60;;
43676;SDS011;29275;48.800;18.102;2023-11-18T10:34:48;2.95;;;1.90;;
43676;SDS011;29275;48.800;18.102;2023-11-18T10:37:53;7.22;;;2.83;;
43676;SDS011;29275;48.800;18.102;2023-11-18T10:40:58;2.55;;;1.60;;
43676;SDS011;29275;48.800;18.102;2023-11-18T10:47:10;2.25;;;1.27;;
43676;SDS011;29275;48.800;18.102;2023-11-18T10:50:16;3.83;;;1.83;;
43676;SDS011;29275;48.800;18.102;2023-11-18T10:53:22;3.25;;;1.60;;
43676;SDS011;29275;48.800;18.102;2023-11-18T10:56:25;2.85;;;1.45;;
43676;SDS011;29275;48.800;18.102;2023-11-18T10:59:30;3.38;;;1.70;;
43676;SDS011;29275;48.800;18.102;2023-11-18T11:02:34;2.60;;;1.88;;
43676;SDS011;29275;48.800;18.102;2023-11-18T11:05:41;4.55;;;2.50;;
43676;SDS011;29275;48.800;18.102;2023-11-18T11:08:46;6.03;;;2.53;;
43676;SDS011;29275;48.800;18.102;2023-11-18T11:11:54;3.22;;;1.95;;
43676;SDS011;29275;48.800;18.102;2023-11-18T11:15:08;6.82;;;3.63;;
43676;SDS011;29275;48.800;18.102;2023-11-18T11:18:24;3.05;;;1.73;;
43676;SDS011;29275;48.800;18.102;2023-11-18T11:21:35;2.78;;;1.10;;
43676;SDS011;29275;48.800;18.102;2023-11-18T11:25:02;1.10;;;0.70;;
43676;SDS011;29275;48.800;18.102;2023-11-18T11:28:26;3.40;;;1.20;;
43676;SDS011;29275;48.800;18.102;2023-11-18T11:31:55;1.05;;;0.60;;
43676;SDS011;29275;48.800;18.102;2023-11-18T11:35:19;2.63;;;1.50;;
43676;SDS011;29275;48.800;18.102;2023-11-18T11:38:25;2.35;;;1.10;;
43676;SDS011;29275;48.800;18.102;2023-11-18T11:41:33;5.50;;;2.55;;
43676;SDS011;29275;48.800;18.102;2023-11-18T11:44:39;6.45;;;1.90;;
43676;SDS011;29275;48.800;18.102;2023-11-18T11:47:48;3.70;;;1.95;;
43676;SDS011;29275;48.800;18.102;2023-11-18T11:51:08;2.40;;;1.15;;
43676;SDS011;29275;48.800;18.102;2023-11-18T11:54:35;2.25;;;1.13;;
43676;SDS011;29275;48.800;18.102;2023-11-18T11:57:42;2.17;;;0.90;;
43676;SDS011;29275;48.800;18.102;2023-11-18T12:00:53;2.05;;;1.15;;
43676;SDS011;29275;48.800;18.102;2023-11-18T12:03:57;2.78;;;1.27;;
43676;SDS011;29275;48.800;18.102;2023-11-18T12:07:01;2.85;;;1.42;;
43676;SDS011;29275;48.800;18.102;2023-11-18T12:10:19;2.80;;;1.67;;
43676;SDS011;29275;48.800;18.102;2023-11-18T12:13:25;2.67;;;1.40;;
43676;SDS011;29275;48.800;18.102;2023-11-18T12:16:57;3.00;;;1.67;;
43676;SDS011;29275;48.800;18.102;2023-11-18T12:20:03;4.05;;;2.03;;
43676;SDS011;29275;48.800;18.102;2023-11-18T12:24:33;2.60;;;1.60;;
43676;SDS011;29275;48.800;18.102;2023-11-18T12:30:44;4.35;;;1.65;;
43676;SDS011;29275;48.800;18.102;2023-11-18T12:34:20;5.03;;;1.17;;
43676;SDS011;29275;48.800;18.102;2023-11-18T12:41:06;3.70;;;1.65;;
43676;SDS011;29275;48.800;18.102;2023-11-18T12:44:15;4.85;;;2.25;;
43676;SDS011;29275;48.800;18.102;2023-11-18T12:47:22;2.60;;;1.95;;
43676;SDS011;29275;48.800;18.102;2023-11-18T12:50:31;7.13;;;4.20;;
43676;SDS011;29275;48.800;18.102;2023-11-18T12:53:37;6.00;;;2.80;;
43676;SDS011;29275;48.800;18.102;2023-11-18T12:56:41;5.22;;;2.88;;
43676;SDS011;29275;48.800;18.102;2023-11-18T12:59:51;4.80;;;2.45;;
43676;SDS011;29275;48.800;18.102;2023-11-18T13:02:54;8.18;;;3.60;;
43676;SDS011;29275;48.800;18.102;2023-11-18T13:06:00;5.45;;;2.67;;
43676;SDS011;29275;48.800;18.102;2023-11-18T13:09:04;7.75;;;3.75;;
43676;SDS011;29275;48.800;18.102;2023-11-18T13:12:12;5.57;;;2.55;;
43676;SDS011;29275;48.800;18.102;2023-11-18T13:15:20;5.13;;;2.55;;
43676;SDS011;29275;48.800;18.102;2023-11-18T13:18:27;4.72;;;2.33;;
43676;SDS011;29275;48.800;18.102;2023-11-18T13:21:30;9.20;;;4.53;;
43676;SDS011;29275;48.800;18.102;2023-11-18T13:24:40;9.15;;;5.93;;
43676;SDS011;29275;48.800;18.102;2023-11-18T13:27:43;8.30;;;4.07;;
43676;SDS011;29275;48.800;18.102;2023-11-18T13:30:46;6.35;;;3.00;;
43676;SDS011;29275;48.800;18.102;2023-11-18T13:33:50;5.35;;;2.47;;
43676;SDS011;29275;48.800;18.102;2023-11-18T13:36:53;5.03;;;2.65;;
43676;SDS011;29275;48.800;18.102;2023-11-18T13:39:57;4.65;;;2.80;;
43676;SDS011;29275;48.800;18.102;2023-11-18T13:43:03;3.95;;;2.38;;
43676;SDS011;29275;48.800;18.102;2023-11-18T13:46:11;10.35;;;5.95;;
43676;SDS011;29275;48.800;18.102;2023-11-18T13:49:16;7.28;;;4.70;;
43676;SDS011;29275;48.800;18.102;2023-11-18T13:52:19;3.67;;;2.10;;
43676;SDS011;29275;48.800;18.102;2023-11-18T13:55:23;3.97;;;1.80;;
43676;SDS011;29275;48.800;18.102;2023-11-18T13:58:30;4.05;;;2.20;;
43676;SDS011;29275;48.800;18.102;2023-11-18T14:01:33;8.75;;;2.35;;
43676;SDS011;29275;48.800;18.102;2023-11-18T14:04:39;4.55;;;1.60;;
43676;SDS011;29275;48.800;18.102;2023-11-18T14:07:42;3.13;;;1.45;;
43676;SDS011;29275;48.800;18.102;2023-11-18T14:10:48;3.70;;;1.95;;
43676;SDS011;29275;48.800;18.102;2023-11-18T14:14:04;3.55;;;1.85;;
43676;SDS011;29275;48.800;18.102;2023-11-18T14:17:08;4.20;;;2.28;;
43676;SDS011;29275;48.800;18.102;2023-11-18T14:20:13;4.82;;;2.25;;
43676;SDS011;29275;48.800;18.102;2023-11-18T14:23:16;4.15;;;2.13;;
43676;SDS011;29275;48.800;18.102;2023-11-18T14:26:19;4.07;;;2.20;;
43676;SDS011;29275;48.800;18.102;2023-11-18T14:29:23;4.63;;;2.45;;
43676;SDS011;29275;48.800;18.102;2023-11-18T14:32:30;5.93;;;3.17;;
43676;SDS011;29275;48.800;18.102;2023-11-18T14:35:33;4.38;;;2.78;;
43676;SDS011;29275;48.800;18.102;2023-11-18T14:38:37;5.47;;;3.10;;
43676;SDS011;29275;48.800;18.102;2023-11-18T14:41:40;5.88;;;3.10;;
43676;SDS011;29275;48.800;18.102;2023-11-18T14:44:43;5.57;;;3.13;;
43676;SDS011;29275;48.800;18.102;2023-11-18T14:47:46;6.43;;;2.90;;
43676;SDS011;29275;48.800;18.102;2023-11-18T14:50:52;5.93;;;3.53;;
43676;SDS011;29275;48.800;18.102;2023-11-18T14:53:56;3.97;;;2.50;;
43676;SDS011;29275;48.800;18.102;2023-11-18T14:56:59;3.78;;;2.67;;
43676;SDS011;29275;48.800;18.102;2023-11-18T15:00:03;5.10;;;2.42;;
43676;SDS011;29275;48.800;18.102;2023-11-18T15:03:10;7.13;;;2.72;;
43676;SDS011;29275;48.800;18.102;2023-11-18T15:06:14;5.13;;;2.85;;
43676;SDS011;29275;48.800;18.102;2023-11-18T15:09:18;4.22;;;2.40;;
43676;SDS011;29275;48.800;18.102;2023-11-18T15:12:24;4.85;;;2.78;;
43676;SDS011;29275;48.800;18.102;2023-11-18T15:15:30;4.35;;;2.58;;
43676;SDS011;29275;48.800;18.102;2023-11-18T15:18:35;8.38;;;2.50;;
43676;SDS011;29275;48.800;18.102;2023-11-18T15:21:38;3.90;;;2.58;;
43676;SDS011;29275;48.800;18.102;2023-11-18T15:24:41;4.03;;;2.40;;
43676;SDS011;29275;48.800;18.102;2023-11-18T15:27:44;6.18;;;2.10;;
43676;SDS011;29275;48.800;18.102;2023-11-18T15:30:48;4.22;;;2.25;;
43676;SDS011;29275;48.800;18.102;2023-11-18T15:33:51;4.28;;;2.00;;
43676;SDS011;29275;48.800;18.102;2023-11-18T15:36:55;4.55;;;2.50;;
43676;SDS011;29275;48.800;18.102;2023-11-18T15:39:58;6.72;;;3.65;;
43676;SDS011;29275;48.800;18.102;2023-11-18T15:43:01;6.30;;;4.15;;
43676;SDS011;29275;48.800;18.102;2023-11-18T15:46:04;5.25;;;2.92;;
43676;SDS011;29275;48.800;18.102;2023-11-18T15:49:09;6.07;;;3.25;;
43676;SDS011;29275;48.800;18.102;2023-11-18T15:52:14;9.00;;;4.50;;
43676;SDS011;29275;48.800;18.102;2023-11-18T15:55:20;5.50;;;3.08;;
43676;SDS011;29275;48.800;18.102;2023-11-18T15:58:24;9.63;;;4.78;;
43676;SDS011;29275;48.800;18.102;2023-11-18T16:01:28;9.70;;;4.55;;
43676;SDS011;29275;48.800;18.102;2023-11-18T16:04:31;11.45;;;5.90;;
43676;SDS011;29275;48.800;18.102;2023-11-18T16:07:34;7.88;;;4.22;;
43676;SDS011;29275;48.800;18.102;2023-11-18T16:10:40;6.47;;;3.78;;
43676;SDS011;29275;48.800;18.102;2023-11-18T16:13:43;5.80;;;3.65;;
43676;SDS011;29275;48.800;18.102;2023-11-18T16:16:47;8.88;;;4.53;;
43676;SDS011;29275;48.800;18.102;2023-11-18T16:19:50;9.32;;;3.75;;
43676;SDS011;29275;48.800;18.102;2023-11-18T16:22:53;19.08;;;8.23;;
43676;SDS011;29275;48.800;18.102;2023-11-18T16:26:03;19.83;;;5.97;;
43676;SDS011;29275;48.800;18.102;2023-11-18T16:29:07;14.77;;;6.22;;
43676;SDS011;29275;48.800;18.102;2023-11-18T16:32:12;14.95;;;7.20;;
43676;SDS011;29275;48.800;18.102;2023-11-18T16:35:15;20.98;;;9.68;;
43676;SDS011;29275;48.800;18.102;2023-11-18T16:38:19;7.90;;;4.15;;
43676;SDS011;29275;48.800;18.102;2023-11-18T16:41:22;7.65;;;3.47;;
43676;SDS011;29275;48.800;18.102;2023-11-18T16:44:33;15.95;;;4.97;;
43676;SDS011;29275;48.800;18.102;2023-11-18T16:47:36;15.88;;;7.15;;
43676;SDS011;29275;48.800;18.102;2023-11-18T16:50:41;23.15;;;9.82;;
43676;SDS011;29275;48.800;18.102;2023-11-18T16:53:45;14.63;;;5.97;;
43676;SDS011;29275;48.800;18.102;2023-11-18T16:56:48;20.13;;;7.45;;
43676;SDS011;29275;48.800;18.102;2023-11-18T16:59:52;13.35;;;6.43;;
43676;SDS011;29275;48.800;18.102;2023-11-18T17:02:57;7.70;;;4.00;;
43676;SDS011;29275;48.800;18.102;2023-11-18T17:06:01;15.07;;;5.45;;
43676;SDS011;29275;48.800;18.102;2023-11-18T17:09:06;7.95;;;3.80;;
43676;SDS011;29275;48.800;18.102;2023-11-18T17:12:09;7.88;;;4.18;;
43676;SDS011;29275;48.800;18.102;2023-11-18T17:15:12;6.85;;;4.10;;
43676;SDS011;29275;48.800;18.102;2023-11-18T17:18:15;8.65;;;4.38;;
43676;SDS011;29275;48.800;18.102;2023-11-18T17:21:19;7.50;;;3.88;;
43676;SDS011;29275;48.800;18.102;2023-11-18T17:24:22;5.93;;;3.35;;
43676;SDS011;29275;48.800;18.102;2023-11-18T17:27:25;5.13;;;3.75;;
43676;SDS011;29275;48.800;18.102;2023-11-18T17:30:28;11.18;;;5.50;;
43676;SDS011;29275;48.800;18.102;2023-11-18T17:33:37;7.38;;;4.40;;
43676;SDS011;29275;48.800;18.102;2023-11-18T17:36:41;12.13;;;6.03;;
43676;SDS011;29275;48.800;18.102;2023-11-18T17:39:46;9.73;;;4.68;;
43676;SDS011;29275;48.800;18.102;2023-11-18T17:42:49;13.65;;;6.00;;
43676;SDS011;29275;48.800;18.102;2023-11-18T17:45:56;20.98;;;8.63;;
43676;SDS011;29275;48.800;18.102;2023-11-18T17:48:59;25.30;;;9.30;;
43676;SDS011;29275;48.800;18.102;2023-11-18T17:52:02;30.33;;;12.00;;
43676;SDS011;29275;48.800;18.102;2023-11-18T17:55:06;27.70;;;10.65;;
43676;SDS011;29275;48.800;18.102;2023-11-18T17:58:10;46.58;;;18.42;;
43676;SDS011;29275;48.800;18.102;2023-11-18T18:01:13;30.08;;;11.57;;
43676;SDS011;29275;48.800;18.102;2023-11-18T18:04:21;9.00;;;5.65;;
43676;SDS011;29275;48.800;18.102;2023-11-18T18:07:25;10.45;;;4.78;;
43676;SDS011;29275;48.800;18.102;2023-11-18T18:10:30;6.50;;;4.18;;
43676;SDS011;29275;48.800;18.102;2023-11-18T18:13:34;6.45;;;4.13;;
43676;SDS011;29275;48.800;18.102;2023-11-18T18:16:37;6.20;;;3.65;;
43676;SDS011;29275;48.800;18.102;2023-11-18T18:19:40;6.93;;;3.53;;
43676;SDS011;29275;48.800;18.102;2023-11-18T18:22:43;6.22;;;3.47;;
43676;SDS011;29275;48.800;18.102;2023-11-18T18:25:46;7.72;;;3.67;;
43676;SDS011;29275;48.800;18.102;2023-11-18T18:28:49;5.03;;;3.25;;
43676;SDS011;29275;48.800;18.102;2023-11-18T18:31:52;7.53;;;3.53;;
43676;SDS011;29275;48.800;18.102;2023-11-18T18:34:56;6.32;;;3.90;;
43676;SDS011;29275;48.800;18.102;2023-11-18T18:38:00;7.22;;;3.55;;
43676;SDS011;29275;48.800;18.102;2023-11-18T18:41:03;7.85;;;3.85;;